Austin, Texas
Traffic Map
Current Weather Conditions
Austin, Texas
Few Clouds
Few Clouds
69°
Feels Like: 69°
Wind Chill: 69° Ceiling: Unl
Heat Index: 69° Visibility: 10mi
Dew Point: 68° Wind: 0mph
Humidity: 96% Direction: ° ()
Pressure: 29.86in Gusts: 0mph
Raw Report DataKATT 260151Z AUTO 00000KT 10SM FEW009 21/20 A2986 RMK AO2 SLP101 T02060200
Traffic Incident Summary
Active as of:
Severity:
Category:
InformationThere was an issue retrieving the traffic information for this location. Please try a different location or try again shortly.
Advertisements
Track Severe Weather on mobile